createdAt,value
2023-05-22T00:03:40.597Z,100780.73
2023-05-22T00:06:09.732Z,100782.73
2023-05-22T00:08:38.374Z,100782.55
2023-05-22T00:11:06.637Z,100788.45
2023-05-22T00:13:34.799Z,100793.96
2023-05-22T00:16:03.127Z,100798.23
2023-05-22T00:18:31.989Z,100800.20
2023-05-22T00:21:00.339Z,100803.04
2023-05-22T00:23:30.633Z,100800.50
2023-05-22T00:25:59.075Z,100801.00
2023-05-22T00:28:28.824Z,100797.23
2023-05-22T00:30:57.068Z,100798.30
2023-05-22T00:33:25.656Z,100794.00
2023-05-22T00:35:53.817Z,100797.23
2023-05-22T00:38:33.989Z,100796.86
2023-05-22T00:41:03.628Z,100796.84
2023-05-22T00:43:31.968Z,100793.39
2023-05-22T00:46:00.435Z,100793.05
2023-05-22T00:48:28.584Z,100790.77
2023-05-22T00:50:59.103Z,100792.07
2023-05-22T00:53:30.994Z,100793.36
2023-05-22T00:55:59.637Z,100793.20
2023-05-22T00:58:27.813Z,100789.12
2023-05-22T01:00:56.951Z,100786.84
2023-05-22T01:03:25.795Z,100779.73
2023-05-22T01:05:55.465Z,100773.67
2023-05-22T01:08:23.845Z,100771.20
2023-05-22T01:11:02.280Z,100769.98
2023-05-22T01:13:41.546Z,100765.91
2023-05-22T01:16:20.843Z,100765.04
2023-05-22T01:19:17.515Z,100764.90
2023-05-22T01:22:04.865Z,100770.48
2023-05-22T01:24:39.705Z,100769.77
2023-05-22T01:27:23.461Z,100766.04
2023-05-22T01:30:18.089Z,100769.98
2023-05-22T01:32:48.253Z,100771.58
2023-05-22T01:35:18.506Z,100770.15
2023-05-22T01:37:48.221Z,100767.82
2023-05-22T01:40:17.321Z,100768.54
2023-05-22T01:42:46.132Z,100765.52
2023-05-22T01:45:14.868Z,100765.52
2023-05-22T01:47:43.025Z,100766.05
2023-05-22T01:50:12.254Z,100762.30
2023-05-22T01:52:54.080Z,100761.42
2023-05-22T01:55:46.201Z,100760.73
2023-05-22T01:58:47.354Z,100759.11
2023-05-22T02:01:19.558Z,100759.48
2023-05-22T02:03:50.927Z,100753.39
2023-05-22T02:06:20.365Z,100754.64
2023-05-22T02:08:51.450Z,100751.59
2023-05-22T02:11:23.336Z,100751.80
2023-05-22T02:13:52.114Z,100747.88
2023-05-22T02:16:20.947Z,100746.64
2023-05-22T02:18:49.241Z,100745.02
2023-05-22T02:21:17.509Z,100742.19
2023-05-22T02:23:45.755Z,100741.86
2023-05-22T02:26:13.984Z,100741.52
2023-05-22T02:28:42.820Z,100741.70
2023-05-22T02:31:11.179Z,100741.18
2023-05-22T02:33:39.508Z,100739.77
2023-05-22T02:36:08.323Z,100731.55
2023-05-22T02:38:37.027Z,100727.45
2023-05-22T02:41:05.860Z,100725.84
2023-05-22T02:43:34.319Z,100726.58
2023-05-22T02:46:02.444Z,100719.80
2023-05-22T02:48:30.713Z,100715.87
2023-05-22T02:50:59.048Z,100717.84
2023-05-22T02:53:27.924Z,100714.64
2023-05-22T02:55:56.764Z,100713.40
2023-05-22T02:58:25.637Z,100708.05
2023-05-22T03:00:53.892Z,100701.77
2023-05-22T03:03:23.108Z,100698.92
2023-05-22T03:05:51.586Z,100693.56
2023-05-22T03:08:21.692Z,100687.33
2023-05-22T03:10:50.117Z,100681.80
2023-05-22T03:13:18.278Z,100671.79
2023-05-22T03:15:46.581Z,100671.27
2023-05-22T03:18:14.779Z,100670.55
2023-05-22T03:20:43.104Z,100669.13
2023-05-22T03:23:12.520Z,100669.65
2023-05-22T03:25:41.260Z,100669.10
2023-05-22T03:28:09.480Z,100664.27
2023-05-22T03:30:37.892Z,100666.95
2023-05-22T03:33:06.301Z,100668.39
2023-05-22T03:35:34.620Z,100668.91
2023-05-22T03:38:02.801Z,100669.08
2023-05-22T03:40:31.322Z,100665.48
2023-05-22T03:42:59.461Z,100664.38
2023-05-22T03:45:27.647Z,100663.14
2023-05-22T03:47:55.934Z,100662.80
2023-05-22T03:50:24.069Z,100661.73
2023-05-22T03:52:52.167Z,100658.69
2023-05-22T03:55:20.287Z,100655.64
2023-05-22T03:57:48.655Z,100646.34
2023-05-22T04:00:17.435Z,100638.29
2023-05-22T04:02:46.586Z,100639.73
2023-05-22T04:05:15.317Z,100635.27
2023-05-22T04:07:43.478Z,100632.94
2023-05-22T04:10:12.129Z,100624.70
2023-05-22T04:12:40.634Z,100617.90
2023-05-22T04:15:09.643Z,100615.42
2023-05-22T04:17:40.895Z,100608.27
2023-05-22T04:20:09.792Z,100604.53
2023-05-22T04:22:37.880Z,100605.98
2023-05-22T04:25:06.549Z,100601.19
2023-05-22T04:27:34.653Z,100597.27
2023-05-22T04:30:04.144Z,100597.28
2023-05-22T04:32:33.364Z,100593.88
2023-05-22T04:35:01.508Z,100596.58
2023-05-22T04:37:29.640Z,100598.54
2023-05-22T04:39:58.770Z,100597.83
2023-05-22T04:42:27.054Z,100598.02
2023-05-22T04:44:55.215Z,100600.89
2023-05-22T04:47:23.479Z,100599.45
2023-05-22T04:49:52.091Z,100598.73
2023-05-22T04:52:20.157Z,100600.36
2023-05-22T04:54:48.479Z,100605.17
2023-05-22T04:57:16.629Z,100606.26
2023-05-22T04:59:44.772Z,100605.18
2023-05-22T05:02:13.104Z,100605.03
2023-05-22T05:04:41.774Z,100602.88
2023-05-22T05:07:10.134Z,100604.13
2023-05-22T05:09:38.336Z,100601.26
2023-05-22T05:12:06.867Z,100601.80
2023-05-22T05:14:35.156Z,100599.48
2023-05-22T05:17:03.461Z,100598.23
2023-05-22T05:19:31.800Z,100596.80
2023-05-22T05:22:00.851Z,100597.88
2023-05-22T05:24:29.554Z,100597.35
2023-05-22T05:26:57.789Z,100596.09
2023-05-22T05:29:25.929Z,100604.48
2023-05-22T05:31:54.146Z,100607.88
2023-05-22T05:34:22.405Z,100610.73
2023-05-22T05:36:50.691Z,100619.31
2023-05-22T05:39:19.016Z,100626.64
2023-05-22T05:41:47.201Z,100632.01
2023-05-22T05:44:15.574Z,100639.86
2023-05-22T05:46:44.049Z,100643.42
2023-05-22T05:49:12.281Z,100653.05
2023-05-22T05:51:40.617Z,100659.86
2023-05-22T05:54:08.966Z,100661.08
2023-05-22T05:56:37.769Z,100668.23
2023-05-22T05:59:05.925Z,100671.08
2023-05-22T06:01:35.637Z,100671.75
2023-05-22T06:04:04.071Z,100667.43
2023-05-22T06:06:32.683Z,100666.30
2023-05-22T06:09:01.759Z,100662.49
2023-05-22T06:11:29.940Z,100663.52
2023-05-22T06:13:58.197Z,100659.71
2023-05-22T06:16:26.912Z,100658.58
2023-05-22T06:18:56.527Z,100659.63
2023-05-22T06:21:24.921Z,100653.84
2023-05-22T06:23:53.291Z,100655.77
2023-05-22T06:26:21.662Z,100660.21
2023-05-22T06:28:49.766Z,100663.41
2023-05-22T06:31:18.239Z,100661.21
2023-05-22T06:33:46.633Z,100663.67
2023-05-22T06:36:14.813Z,100671.17
2023-05-22T06:38:43.121Z,100675.10
2023-05-22T06:41:11.420Z,100681.31
2023-05-22T06:43:40.059Z,100678.77
2023-05-22T06:46:08.830Z,100681.27
2023-05-22T06:48:37.175Z,100682.48
2023-05-22T06:51:05.283Z,100681.89
2023-05-22T06:53:33.712Z,100685.25
2023-05-22T06:56:01.861Z,100686.45
2023-05-22T06:58:29.949Z,100679.95
2023-05-22T07:00:58.256Z,100684.04
2023-05-22T07:03:26.613Z,100685.45
2023-05-22T07:05:55.878Z,100682.76
2023-05-22T07:08:24.704Z,100683.63
2023-05-22T07:10:52.837Z,100681.58
2023-05-22T07:13:20.990Z,100680.97
2023-05-22T07:15:49.455Z,100681.08
2023-05-22T07:18:17.577Z,100682.77
2023-05-22T07:20:45.646Z,100686.98
2023-05-22T07:23:13.981Z,100685.49
2023-05-22T07:25:43.005Z,100694.73
2023-05-22T07:28:11.069Z,100696.29
2023-05-22T07:30:39.733Z,100694.95
2023-05-22T07:33:08.240Z,100693.96
2023-05-22T07:35:36.804Z,100697.16
2023-05-22T07:38:04.893Z,100698.25
2023-05-22T07:40:33.005Z,100696.83
2023-05-22T07:43:01.258Z,100700.39
2023-05-22T07:45:29.892Z,100703.42
2023-05-22T07:47:58.073Z,100700.56
2023-05-22T07:50:26.702Z,100700.90
2023-05-22T07:52:55.369Z,100698.69
2023-05-22T07:55:23.597Z,100695.84
2023-05-22T07:57:51.886Z,100697.45
2023-05-22T08:00:20.694Z,100693.95
2023-05-22T08:02:49.068Z,100689.75
2023-05-22T08:05:17.404Z,100683.55
2023-05-22T08:07:45.988Z,100685.42
2023-05-22T08:10:17.042Z,100680.14
2023-05-22T08:12:46.092Z,100678.95
2023-05-22T08:15:14.443Z,100680.64
2023-05-22T08:17:42.746Z,100684.48
2023-05-22T08:20:11.538Z,100682.95
2023-05-22T08:22:40.118Z,100683.94
2023-05-22T08:25:08.786Z,100683.80
2023-05-22T08:27:36.880Z,100685.28
2023-05-22T08:30:05.554Z,100683.54
2023-05-22T08:32:35.630Z,100682.31
2023-05-22T08:35:04.697Z,100682.88
2023-05-22T08:37:32.878Z,100685.02
2023-05-22T08:40:01.586Z,100685.30
2023-05-22T08:42:30.351Z,100676.95
2023-05-22T08:44:58.555Z,100674.70
2023-05-22T08:47:26.990Z,100668.06
2023-05-22T08:49:57.498Z,100671.34
2023-05-22T08:52:33.350Z,100670.92
2023-05-22T08:55:04.593Z,100667.98
2023-05-22T08:57:34.211Z,100669.55
2023-05-22T09:00:02.953Z,100671.54
2023-05-22T09:02:32.504Z,100670.71
2023-05-22T09:05:01.408Z,100667.87
2023-05-22T09:07:30.639Z,100671.65
2023-05-22T09:09:59.030Z,100671.29
2023-05-22T09:12:27.636Z,100680.95
2023-05-22T09:14:55.979Z,100677.05
2023-05-22T09:17:26.662Z,100673.20
2023-05-22T09:19:55.093Z,100668.89
2023-05-22T09:22:24.419Z,100669.04
2023-05-22T09:24:52.918Z,100667.11
2023-05-22T09:27:23.504Z,100671.33
2023-05-22T09:29:53.541Z,100668.92
2023-05-22T09:32:22.045Z,100671.06
2023-05-22T09:34:51.710Z,100664.95
2023-05-22T09:37:20.902Z,100664.13
2023-05-22T09:39:49.526Z,100668.70
2023-05-22T09:42:18.377Z,100669.02
2023-05-22T09:44:50.106Z,100662.25
2023-05-22T09:47:18.531Z,100664.34
2023-05-22T09:49:48.586Z,100665.61
2023-05-22T09:52:19.850Z,100666.77
2023-05-22T09:54:52.310Z,100665.41
2023-05-22T09:57:21.337Z,100661.12
2023-05-22T09:59:52.076Z,100654.52
2023-05-22T10:02:24.503Z,100652.62
2023-05-22T10:04:53.228Z,100651.30
2023-05-22T10:07:37.520Z,100646.64
2023-05-22T10:10:09.255Z,100635.35
2023-05-22T10:12:43.793Z,100632.54
2023-05-22T10:15:12.939Z,100628.16
2023-05-22T10:17:41.316Z,100631.63
2023-05-22T10:20:11.664Z,100628.52
2023-05-22T10:22:48.049Z,100624.96
2023-05-22T10:25:18.009Z,100625.64
2023-05-22T10:27:46.476Z,100617.23
2023-05-22T10:30:29.942Z,100615.27
2023-05-22T10:33:26.128Z,100608.15
2023-05-22T10:36:17.136Z,100613.23
2023-05-22T10:38:57.491Z,100619.86
2023-05-22T10:41:26.782Z,100619.08
2023-05-22T10:43:57.077Z,100625.90
2023-05-22T10:46:25.764Z,100621.14
2023-05-22T10:48:55.369Z,100621.77
2023-05-22T10:51:25.270Z,100631.75
2023-05-22T10:53:59.233Z,100626.90
2023-05-22T10:56:34.287Z,100618.75
2023-05-22T10:59:04.797Z,100617.98
2023-05-22T11:01:34.075Z,100618.32
2023-05-22T11:04:11.265Z,100615.86
2023-05-22T11:06:40.723Z,100616.11
2023-05-22T11:09:28.881Z,100615.94
2023-05-22T11:12:28.261Z,100608.89
2023-05-22T11:15:06.545Z,100603.64
2023-05-22T11:17:43.784Z,100612.59
2023-05-22T11:20:25.786Z,100617.38
2023-05-22T11:23:02.194Z,100609.11
2023-05-22T11:25:33.863Z,100600.24
2023-05-22T11:28:06.584Z,100597.73
2023-05-22T11:30:35.171Z,100586.09
2023-05-22T11:33:05.481Z,100582.55
2023-05-22T11:35:34.796Z,100590.92
2023-05-22T11:38:05.381Z,100581.80
2023-05-22T11:40:33.594Z,100580.27
2023-05-22T11:43:02.693Z,100581.40
2023-05-22T11:45:30.815Z,100579.06
2023-05-22T11:47:59.017Z,100573.83
2023-05-22T11:50:41.074Z,100581.16
2023-05-22T11:53:11.372Z,100577.84
2023-05-22T11:55:39.534Z,100574.32
2023-05-22T11:58:07.569Z,100569.13
2023-05-22T12:00:35.911Z,100569.23
2023-05-22T12:03:04.484Z,100571.48
2023-05-22T12:05:33.118Z,100568.23
2023-05-22T12:08:01.276Z,100572.63
2023-05-22T12:10:29.538Z,100567.78
2023-05-22T12:12:58.381Z,100566.10
2023-05-22T12:15:27.114Z,100572.23
2023-05-22T12:17:56.626Z,100567.12
2023-05-22T12:20:29.859Z,100571.18
2023-05-22T12:22:58.596Z,100572.51
2023-05-22T12:25:36.273Z,100571.91
2023-05-22T12:28:06.874Z,100569.43
2023-05-22T12:30:42.844Z,100570.50
2023-05-22T12:33:15.382Z,100558.66
2023-05-22T12:35:43.740Z,100563.45
2023-05-22T12:38:11.860Z,100567.20
2023-05-22T12:40:40.381Z,100563.69
2023-05-22T12:43:08.775Z,100575.80
2023-05-22T12:45:36.829Z,100580.58
2023-05-22T12:48:05.103Z,100581.42
2023-05-22T12:50:33.333Z,100573.01
2023-05-22T12:53:02.939Z,100572.65
2023-05-22T12:55:31.520Z,100574.70
2023-05-22T12:58:00.468Z,100571.08
2023-05-22T13:00:28.651Z,100570.02
2023-05-22T13:02:57.727Z,100571.85
2023-05-22T13:05:26.119Z,100561.47
2023-05-22T13:07:54.572Z,100570.04
2023-05-22T13:10:23.677Z,100562.73
2023-05-22T13:12:52.873Z,100561.42
2023-05-22T13:15:21.529Z,100556.05
2023-05-22T13:17:49.760Z,100547.75
2023-05-22T13:20:17.937Z,100555.04
2023-05-22T13:22:46.069Z,100546.27
2023-05-22T13:25:15.116Z,100540.84
2023-05-22T13:27:43.557Z,100550.97
2023-05-22T13:30:12.266Z,100549.91
2023-05-22T13:32:40.983Z,100556.67
2023-05-22T13:35:09.583Z,100554.75
2023-05-22T13:37:38.228Z,100552.85
2023-05-22T13:40:07.471Z,100563.02
2023-05-22T13:42:36.039Z,100567.70
2023-05-22T13:45:05.159Z,100566.11
2023-05-22T13:47:33.400Z,100557.98
2023-05-22T13:50:01.763Z,100553.42
2023-05-22T13:52:29.802Z,100548.21
2023-05-22T13:54:58.036Z,100547.09
2023-05-22T13:57:26.265Z,100547.48
2023-05-22T13:59:54.400Z,100535.39
2023-05-22T14:02:22.619Z,100549.99
2023-05-22T14:04:51.215Z,100548.98
2023-05-22T14:07:19.521Z,100552.27
2023-05-22T14:09:47.929Z,100551.80
2023-05-22T14:12:16.322Z,100541.69
2023-05-22T14:14:44.553Z,100551.81
2023-05-22T14:17:12.885Z,100548.97
2023-05-22T14:19:40.935Z,100544.81
2023-05-22T14:22:09.322Z,100548.84
2023-05-22T14:24:37.462Z,100551.73
2023-05-22T14:27:06.421Z,100549.23
2023-05-22T14:29:34.463Z,100541.91
2023-05-22T14:32:04.608Z,100540.80
2023-05-22T14:34:32.831Z,100546.01
2023-05-22T14:37:01.216Z,100540.98
2023-05-22T14:39:29.808Z,100538.91
2023-05-22T14:41:57.884Z,100540.17
2023-05-22T14:44:26.002Z,100545.02
2023-05-22T14:46:54.610Z,100544.91
2023-05-22T14:49:24.681Z,100545.08
2023-05-22T14:51:52.802Z,100542.88
2023-05-22T14:54:21.513Z,100536.62
2023-05-22T14:56:50.262Z,100546.45
2023-05-22T14:59:18.493Z,100544.98
2023-05-22T15:01:47.203Z,100534.84
2023-05-22T15:04:19.952Z,100539.40
2023-05-22T15:06:48.175Z,100542.73
2023-05-22T15:09:16.293Z,100544.35
2023-05-22T15:11:44.418Z,100534.82
2023-05-22T15:14:12.988Z,100537.49
2023-05-22T15:16:41.390Z,100531.55
2023-05-22T15:19:10.205Z,100542.19
2023-05-22T15:21:41.024Z,100532.92
2023-05-22T15:24:09.400Z,100538.35
2023-05-22T15:26:38.154Z,100540.11
2023-05-22T15:29:07.229Z,100533.45
2023-05-22T15:31:35.485Z,100541.98
2023-05-22T15:34:03.900Z,100529.75
2023-05-22T15:36:35.205Z,100533.35
2023-05-22T15:39:03.823Z,100533.89
2023-05-22T15:41:31.999Z,100531.43
2023-05-22T15:44:00.919Z,100528.34
2023-05-22T15:46:29.613Z,100525.23
2023-05-22T15:48:57.916Z,100531.95
2023-05-22T15:51:26.739Z,100527.08
2023-05-22T15:53:55.000Z,100531.42
2023-05-22T15:56:23.930Z,100525.25
2023-05-22T15:58:52.271Z,100533.30
2023-05-22T16:01:20.981Z,100526.67
2023-05-22T16:03:49.264Z,100517.54
2023-05-22T16:06:17.632Z,100514.40
2023-05-22T16:08:45.749Z,100518.25
2023-05-22T16:11:13.891Z,100527.95
2023-05-22T16:13:43.317Z,100531.52
2023-05-22T16:16:12.016Z,100531.41
2023-05-22T16:18:40.851Z,100527.54
2023-05-22T16:21:09.564Z,100524.36
2023-05-22T16:23:38.125Z,100520.84
2023-05-22T16:26:07.443Z,100519.27
2023-05-22T16:28:36.118Z,100517.71
2023-05-22T16:31:04.720Z,100519.10
2023-05-22T16:33:32.981Z,100518.05
2023-05-22T16:36:01.868Z,100519.73
2023-05-22T16:38:30.219Z,100523.17
2023-05-22T16:40:59.141Z,100524.55
2023-05-22T16:43:27.841Z,100526.95
2023-05-22T16:45:56.121Z,100521.11
2023-05-22T16:48:25.614Z,100514.66
2023-05-22T16:50:54.803Z,100517.19
2023-05-22T16:53:23.444Z,100520.61
2023-05-22T16:55:52.049Z,100518.38
2023-05-22T16:58:20.973Z,100517.77
2023-05-22T17:00:49.304Z,100524.37
2023-05-22T17:03:17.947Z,100520.83
2023-05-22T17:05:46.951Z,100514.36
2023-05-22T17:08:15.105Z,100507.67
2023-05-22T17:10:43.481Z,100502.66
2023-05-22T17:13:11.707Z,100506.06
2023-05-22T17:15:40.000Z,100505.50
2023-05-22T17:18:08.397Z,100504.89
2023-05-22T17:20:36.531Z,100502.42
2023-05-22T17:23:05.069Z,100503.56
2023-05-22T17:25:33.194Z,100505.86
2023-05-22T17:28:01.937Z,100509.08
2023-05-22T17:30:30.634Z,100506.63
2023-05-22T17:32:58.800Z,100508.10
2023-05-22T17:35:27.817Z,100508.42
2023-05-22T17:37:56.204Z,100509.52
2023-05-22T17:40:43.288Z,100512.99
2023-05-22T17:43:14.020Z,100511.80
2023-05-22T17:45:42.390Z,100514.45
2023-05-22T17:48:13.041Z,100518.65
2023-05-22T17:50:43.232Z,100519.80
2023-05-22T17:53:11.381Z,100520.58
2023-05-22T17:55:40.948Z,100519.75
2023-05-22T17:58:09.949Z,100523.13
2023-05-22T18:00:38.278Z,100531.98
2023-05-22T18:03:06.872Z,100540.16
2023-05-22T18:05:36.022Z,100544.38
2023-05-22T18:08:04.768Z,100544.05
2023-05-22T18:10:32.982Z,100550.73
2023-05-22T18:13:01.745Z,100554.89
2023-05-22T18:15:30.269Z,100557.83
2023-05-22T18:17:59.464Z,100551.61
2023-05-22T18:20:27.897Z,100552.92
2023-05-22T18:22:56.486Z,100561.02
2023-05-22T18:25:25.368Z,100558.77
2023-05-22T18:27:54.366Z,100568.45
2023-05-22T18:30:23.407Z,100565.61
2023-05-22T18:32:52.211Z,100566.15
2023-05-22T18:35:22.561Z,100564.48
2023-05-22T18:37:54.572Z,100566.96
2023-05-22T18:40:22.863Z,100576.05
2023-05-22T18:42:51.103Z,100583.20
2023-05-22T18:45:19.286Z,100583.71
2023-05-22T18:47:48.330Z,100582.77
2023-05-22T18:50:16.528Z,100588.55
2023-05-22T18:52:44.945Z,100590.76
2023-05-22T18:55:13.248Z,100590.30
2023-05-22T18:57:42.028Z,100588.52
2023-05-22T19:00:10.771Z,100588.18
2023-05-22T19:02:39.065Z,100592.70
2023-05-22T19:05:07.862Z,100591.90
2023-05-22T19:07:36.209Z,100586.77
2023-05-22T19:10:07.079Z,100591.64
2023-05-22T19:12:36.144Z,100594.14
2023-05-22T19:15:05.818Z,100594.91
2023-05-22T19:17:35.196Z,100594.58
2023-05-22T19:20:04.280Z,100602.85
2023-05-22T19:22:32.518Z,100606.48
2023-05-22T19:25:01.930Z,100612.93
2023-05-22T19:27:32.952Z,100620.14
2023-05-22T19:30:01.262Z,100623.92
2023-05-22T19:32:29.635Z,100629.29
2023-05-22T19:34:57.762Z,100635.05
2023-05-22T19:37:26.086Z,100636.48
2023-05-22T19:39:54.820Z,100632.92
2023-05-22T19:42:23.094Z,100636.02
2023-05-22T19:44:51.357Z,100642.33
2023-05-22T19:47:20.604Z,100643.42
2023-05-22T19:49:49.080Z,100645.43
2023-05-22T19:52:17.150Z,100645.98
2023-05-22T19:54:45.606Z,100648.17
2023-05-22T19:57:13.870Z,100657.52
2023-05-22T19:59:41.883Z,100659.70
2023-05-22T20:02:10.942Z,100667.94
2023-05-22T20:04:40.026Z,100677.42
2023-05-22T20:07:08.165Z,100673.30
2023-05-22T20:09:36.867Z,100677.41
2023-05-22T20:12:07.686Z,100684.39
2023-05-22T20:14:36.499Z,100687.95
2023-05-22T20:17:05.730Z,100686.89
2023-05-22T20:19:34.781Z,100693.16
2023-05-22T20:22:04.697Z,100699.27
2023-05-22T20:24:33.550Z,100700.89
2023-05-22T20:27:02.846Z,100705.70
2023-05-22T20:29:30.961Z,100700.36
2023-05-22T20:32:01.167Z,100701.63
2023-05-22T20:34:29.490Z,100703.77
2023-05-22T20:36:57.807Z,100704.85
2023-05-22T20:39:27.012Z,100701.45
2023-05-22T20:41:56.357Z,100698.39
2023-05-22T20:44:25.137Z,100697.28
2023-05-22T20:46:54.369Z,100700.64
2023-05-22T20:49:24.620Z,100701.88
2023-05-22T20:51:53.427Z,100698.69
2023-05-22T20:54:23.534Z,100702.08
2023-05-22T20:56:52.800Z,100705.14
2023-05-22T20:59:22.169Z,100705.64
2023-05-22T21:01:50.296Z,100700.77
2023-05-22T21:04:20.401Z,100702.93
2023-05-22T21:06:49.600Z,100700.77
2023-05-22T21:09:18.715Z,100701.48
2023-05-22T21:11:48.001Z,100699.69
2023-05-22T21:14:17.102Z,100699.33
2023-05-22T21:16:45.239Z,100696.63
2023-05-22T21:19:13.472Z,100696.27
2023-05-22T21:21:41.938Z,100691.59
2023-05-22T21:24:10.685Z,100682.45
2023-05-22T21:26:39.072Z,100676.35
2023-05-22T21:29:07.429Z,100668.63
2023-05-22T21:31:35.974Z,100656.26
2023-05-22T21:34:04.769Z,100657.10
2023-05-22T21:36:33.102Z,100653.86
2023-05-22T21:39:01.638Z,100655.09
2023-05-22T21:41:29.945Z,100657.94
2023-05-22T21:43:58.527Z,100658.98
2023-05-22T21:46:27.264Z,100661.84
2023-05-22T21:48:55.940Z,100663.96
2023-05-22T21:51:24.174Z,100666.96
2023-05-22T21:53:53.141Z,100665.33
2023-05-22T21:56:21.787Z,100668.37
2023-05-22T21:58:50.200Z,100666.93
2023-05-22T22:01:18.475Z,100673.20
2023-05-22T22:03:46.666Z,100671.76
2023-05-22T22:06:15.320Z,100667.46
2023-05-22T22:08:44.020Z,100672.30
2023-05-22T22:11:12.271Z,100671.59
2023-05-22T22:13:41.115Z,100670.52
2023-05-22T22:16:09.371Z,100675.14
2023-05-22T22:18:37.607Z,100675.15
2023-05-22T22:21:05.748Z,100677.28
2023-05-22T22:23:35.549Z,100681.92
2023-05-22T22:26:04.097Z,100684.59
2023-05-22T22:28:32.761Z,100684.06
2023-05-22T22:31:00.949Z,100684.76
2023-05-22T22:33:29.651Z,100679.91
2023-05-22T22:35:58.412Z,100680.60
2023-05-22T22:38:26.535Z,100678.80
2023-05-22T22:40:55.437Z,100674.33
2023-05-22T22:43:23.749Z,100668.57
2023-05-22T22:45:52.190Z,100666.59
2023-05-22T22:48:20.538Z,100666.55
2023-05-22T22:50:49.954Z,100666.36
2023-05-22T22:53:19.296Z,100661.33
2023-05-22T22:55:48.110Z,100655.23
2023-05-22T22:58:16.912Z,100660.58
2023-05-22T23:00:47.563Z,100657.33
2023-05-22T23:03:15.810Z,100661.61
2023-05-22T23:05:44.853Z,100660.34
2023-05-22T23:08:13.955Z,100658.53
2023-05-22T23:10:43.185Z,100659.06
2023-05-22T23:13:11.881Z,100657.80
2023-05-22T23:15:41.655Z,100656.02
2023-05-22T23:18:10.623Z,100653.02
2023-05-22T23:20:38.892Z,100651.79
2023-05-22T23:23:08.280Z,100652.70
2023-05-22T23:25:37.916Z,100652.17
2023-05-22T23:28:07.399Z,100651.48
2023-05-22T23:30:36.063Z,100652.79
2023-05-22T23:33:04.466Z,100652.79
2023-05-22T23:35:33.486Z,100659.30
2023-05-22T23:38:01.831Z,100654.65
2023-05-22T23:40:30.311Z,100650.36
2023-05-22T23:42:58.378Z,100649.89
2023-05-22T23:45:27.318Z,100644.38
2023-05-22T23:47:57.073Z,100641.72
2023-05-22T23:50:25.555Z,100640.83
2023-05-22T23:52:53.758Z,100637.78
2023-05-22T23:55:23.012Z,100636.36
2023-05-22T23:57:51.180Z,100634.04
